sensor_id;sensor_type;location;lat;lon;timestamp;pressure;altitude;pressure_sealevel;temperature;humidity
19624;BME280;9959;49.798;9.928;2024-03-06T00:00:14;99684.81;;;7.13;100.00
19624;BME280;9959;49.798;9.928;2024-03-06T00:02:41;99682.75;;;7.30;100.00
19624;BME280;9959;49.798;9.928;2024-03-06T00:05:08;99685.06;;;6.97;100.00
19624;BME280;9959;49.798;9.928;2024-03-06T00:07:35;99686.91;;;6.96;100.00
19624;BME280;9959;49.798;9.928;2024-03-06T00:10:02;99691.88;;;6.99;100.00
19624;BME280;9959;49.798;9.928;2024-03-06T00:12:32;99686.25;;;6.94;100.00
19624;BME280;9959;49.798;9.928;2024-03-06T00:14:59;99683.56;;;6.94;100.00
19624;BME280;9959;49.798;9.928;2024-03-06T00:17:25;99690.97;;;6.92;100.00
19624;BME280;9959;49.798;9.928;2024-03-06T00:19:53;99687.50;;;6.77;100.00
19624;BME280;9959;49.798;9.928;2024-03-06T00:22:20;99686.38;;;6.71;100.00
19624;BME280;9959;49.798;9.928;2024-03-06T00:24:49;99690.16;;;6.77;100.00
19624;BME280;9959;49.798;9.928;2024-03-06T00:27:16;99693.13;;;6.82;100.00
19624;BME280;9959;49.798;9.928;2024-03-06T00:29:43;99706.50;;;6.82;100.00
19624;BME280;9959;49.798;9.928;2024-03-06T00:32:10;99700.19;;;6.90;100.00
19624;BME280;9959;49.798;9.928;2024-03-06T00:34:37;99702.53;;;6.78;100.00
19624;BME280;9959;49.798;9.928;2024-03-06T00:37:04;99703.75;;;6.75;100.00
19624;BME280;9959;49.798;9.928;2024-03-06T00:39:31;99705.88;;;6.80;100.00
19624;BME280;9959;49.798;9.928;2024-03-06T00:41:58;99702.72;;;6.62;100.00
19624;BME280;9959;49.798;9.928;2024-03-06T00:44:25;99714.72;;;6.66;100.00
19624;BME280;9959;49.798;9.928;2024-03-06T00:46:51;99715.75;;;6.79;100.00
19624;BME280;9959;49.798;9.928;2024-03-06T00:49:18;99717.66;;;6.71;100.00
19624;BME280;9959;49.798;9.928;2024-03-06T00:51:45;99713.22;;;7.07;100.00
19624;BME280;9959;49.798;9.928;2024-03-06T00:54:15;99707.63;;;7.24;100.00
19624;BME280;9959;49.798;9.928;2024-03-06T00:56:43;99720.59;;;7.05;100.00
19624;BME280;9959;49.798;9.928;2024-03-06T00:59:10;99728.81;;;6.89;100.00
19624;BME280;9959;49.798;9.928;2024-03-06T01:01:37;99725.03;;;6.98;100.00
19624;BME280;9959;49.798;9.928;2024-03-06T01:04:04;99728.28;;;6.79;100.00
19624;BME280;9959;49.798;9.928;2024-03-06T01:06:31;99726.63;;;6.78;100.00
19624;BME280;9959;49.798;9.928;2024-03-06T01:08:59;99729.66;;;7.04;100.00
19624;BME280;9959;49.798;9.928;2024-03-06T01:11:26;99739.44;;;6.97;100.00
19624;BME280;9959;49.798;9.928;2024-03-06T01:13:56;99735.91;;;7.11;100.00
19624;BME280;9959;49.798;9.928;2024-03-06T01:16:23;99736.78;;;6.97;100.00
19624;BME280;9959;49.798;9.928;2024-03-06T01:18:49;99737.06;;;6.73;100.00
19624;BME280;9959;49.798;9.928;2024-03-06T01:21:16;99741.78;;;6.71;100.00
19624;BME280;9959;49.798;9.928;2024-03-06T01:23:43;99745.19;;;6.65;100.00
19624;BME280;9959;49.798;9.928;2024-03-06T01:26:10;99745.47;;;6.70;100.00
19624;BME280;9959;49.798;9.928;2024-03-06T01:28:38;99738.88;;;6.58;100.00
19624;BME280;9959;49.798;9.928;2024-03-06T01:31:06;99746.09;;;6.57;100.00
19624;BME280;9959;49.798;9.928;2024-03-06T01:33:33;99754.78;;;6.74;100.00
19624;BME280;9959;49.798;9.928;2024-03-06T01:36:00;99743.69;;;7.06;100.00
19624;BME280;9959;49.798;9.928;2024-03-06T01:38:27;99735.72;;;7.13;100.00
19624;BME280;9959;49.798;9.928;2024-03-06T01:40:54;99751.53;;;6.93;100.00
19624;BME280;9959;49.798;9.928;2024-03-06T01:43:24;99756.25;;;6.91;100.00
19624;BME280;9959;49.798;9.928;2024-03-06T01:45:52;99754.59;;;6.75;100.00
19624;BME280;9959;49.798;9.928;2024-03-06T01:48:21;99757.53;;;6.66;100.00
19624;BME280;9959;49.798;9.928;2024-03-06T01:50:49;99754.22;;;6.64;100.00
19624;BME280;9959;49.798;9.928;2024-03-06T01:53:16;99757.53;;;6.66;100.00
19624;BME280;9959;49.798;9.928;2024-03-06T01:55:45;99759.56;;;6.93;100.00
19624;BME280;9959;49.798;9.928;2024-03-06T01:58:12;99762.19;;;6.72;100.00
19624;BME280;9959;49.798;9.928;2024-03-06T02:00:39;99757.53;;;6.66;100.00
19624;BME280;9959;49.798;9.928;2024-03-06T02:03:07;99756.81;;;6.72;100.00
19624;BME280;9959;49.798;9.928;2024-03-06T02:05:34;99758.13;;;6.76;100.00
19624;BME280;9959;49.798;9.928;2024-03-06T02:08:02;99757.25;;;6.90;100.00
19624;BME280;9959;49.798;9.928;2024-03-06T02:10:30;99756.56;;;6.82;100.00
19624;BME280;9959;49.798;9.928;2024-03-06T02:12:57;99740.09;;;6.85;100.00
19624;BME280;9959;49.798;9.928;2024-03-06T02:15:24;99747.94;;;6.86;100.00
19624;BME280;9959;49.798;9.928;2024-03-06T02:17:51;99744.63;;;6.84;100.00
19624;BME280;9959;49.798;9.928;2024-03-06T02:20:23;99747.94;;;6.86;100.00
19624;BME280;9959;49.798;9.928;2024-03-06T02:22:50;99748.97;;;6.56;100.00
19624;BME280;9959;49.798;9.928;2024-03-06T02:25:17;99746.09;;;6.87;100.00
19624;BME280;9959;49.798;9.928;2024-03-06T02:27:45;99742.03;;;7.05;100.00
19624;BME280;9959;49.798;9.928;2024-03-06T02:30:18;99743.44;;;6.72;100.00
19624;BME280;9959;49.798;9.928;2024-03-06T02:32:45;99743.34;;;6.51;100.00
19624;BME280;9959;49.798;9.928;2024-03-06T02:35:12;99747.94;;;6.57;100.00
19624;BME280;9959;49.798;9.928;2024-03-06T02:37:42;99729.41;;;6.55;100.00
19624;BME280;9959;49.798;9.928;2024-03-06T02:40:10;99735.97;;;6.53;100.00
19624;BME280;9959;49.798;9.928;2024-03-06T02:42:38;99736.97;;;6.66;100.00
19624;BME280;9959;49.798;9.928;2024-03-06T02:45:06;99735.19;;;6.59;100.00
19624;BME280;9959;49.798;9.928;2024-03-06T02:47:34;99738.06;;;6.72;100.00
19624;BME280;9959;49.798;9.928;2024-03-06T02:50:01;99738.88;;;6.58;100.00
19624;BME280;9959;49.798;9.928;2024-03-06T02:52:28;99738.25;;;6.41;100.00
19624;BME280;9959;49.798;9.928;2024-03-06T02:54:56;99738.81;;;6.51;100.00
19624;BME280;9959;49.798;9.928;2024-03-06T02:57:23;99740.75;;;6.72;100.00
19624;BME280;9959;49.798;9.928;2024-03-06T02:59:50;99735.75;;;6.39;100.00
19624;BME280;9959;49.798;9.928;2024-03-06T03:02:16;99738.34;;;6.48;100.00
19624;BME280;9959;49.798;9.928;2024-03-06T03:04:43;99735.16;;;6.29;100.00
19624;BME280;9959;49.798;9.928;2024-03-06T03:07:10;99731.03;;;6.27;100.00
19624;BME280;9959;49.798;9.928;2024-03-06T03:09:37;99732.78;;;6.34;100.00
19624;BME280;9959;49.798;9.928;2024-03-06T03:12:05;99730.59;;;6.53;100.00
19624;BME280;9959;49.798;9.928;2024-03-06T03:14:32;99736.00;;;6.30;100.00
19624;BME280;9959;49.798;9.928;2024-03-06T03:17:02;99735.16;;;6.29;100.00
19624;BME280;9959;49.798;9.928;2024-03-06T03:19:29;99741.91;;;6.25;100.00
19624;BME280;9959;49.798;9.928;2024-03-06T03:21:56;99736.41;;;6.04;100.00
19624;BME280;9959;49.798;9.928;2024-03-06T03:24:23;99733.81;;;5.96;100.00
19624;BME280;9959;49.798;9.928;2024-03-06T03:26:53;99733.56;;;6.05;100.00
19624;BME280;9959;49.798;9.928;2024-03-06T03:29:20;99745.56;;;6.09;100.00
19624;BME280;9959;49.798;9.928;2024-03-06T03:31:48;99739.84;;;6.13;100.00
19624;BME280;9959;49.798;9.928;2024-03-06T03:34:14;99733.66;;;6.12;100.00
19624;BME280;9959;49.798;9.928;2024-03-06T03:36:44;99724.31;;;5.93;100.00
19624;BME280;9959;49.798;9.928;2024-03-06T03:39:11;99724.03;;;5.80;100.00
19624;BME280;9959;49.798;9.928;2024-03-06T03:41:48;99728.34;;;5.89;100.00
19624;BME280;9959;49.798;9.928;2024-03-06T03:44:17;99735.47;;;5.97;100.00
19624;BME280;9959;49.798;9.928;2024-03-06T03:46:45;99735.47;;;5.97;100.00
19624;BME280;9959;49.798;9.928;2024-03-06T03:49:12;99739.16;;;5.96;100.00
19624;BME280;9959;49.798;9.928;2024-03-06T03:51:40;99748.19;;;5.95;100.00
19624;BME280;9959;49.798;9.928;2024-03-06T03:54:07;99748.56;;;5.92;100.00
19624;BME280;9959;49.798;9.928;2024-03-06T03:56:35;99747.84;;;5.98;100.00
19624;BME280;9959;49.798;9.928;2024-03-06T03:59:01;99751.38;;;6.13;100.00
19624;BME280;9959;49.798;9.928;2024-03-06T04:01:29;99755.19;;;6.33;100.00
19624;BME280;9959;49.798;9.928;2024-03-06T04:03:56;99763.97;;;6.27;100.00
19624;BME280;9959;49.798;9.928;2024-03-06T04:06:23;99763.22;;;5.96;100.00
19624;BME280;9959;49.798;9.928;2024-03-06T04:08:50;99761.44;;;6.11;100.00
19624;BME280;9959;49.798;9.928;2024-03-06T04:11:18;99765.34;;;6.23;100.00
19624;BME280;9959;49.798;9.928;2024-03-06T04:13:45;99773.41;;;6.00;100.00
19624;BME280;9959;49.798;9.928;2024-03-06T04:16:16;99773.63;;;5.91;100.00
19624;BME280;9959;49.798;9.928;2024-03-06T04:18:44;99774.59;;;5.98;100.00
19624;BME280;9959;49.798;9.928;2024-03-06T04:21:14;99780.16;;;6.11;100.00
19624;BME280;9959;49.798;9.928;2024-03-06T04:23:43;99778.63;;;5.94;100.00
19624;BME280;9959;49.798;9.928;2024-03-06T04:26:11;99783.34;;;5.84;100.00
19624;BME280;9959;49.798;9.928;2024-03-06T04:28:38;99788.69;;;5.84;100.00
19624;BME280;9959;49.798;9.928;2024-03-06T04:31:06;99798.56;;;6.06;100.00
19624;BME280;9959;49.798;9.928;2024-03-06T04:33:32;99791.34;;;5.92;100.00
19624;BME280;9959;49.798;9.928;2024-03-06T04:36:03;99798.53;;;5.91;100.00
19624;BME280;9959;49.798;9.928;2024-03-06T04:38:34;99799.94;;;6.02;100.00
19624;BME280;9959;49.798;9.928;2024-03-06T04:41:00;99801.69;;;5.87;100.00
19624;BME280;9959;49.798;9.928;2024-03-06T04:43:27;99807.34;;;6.00;100.00
19624;BME280;9959;49.798;9.928;2024-03-06T04:45:54;99807.81;;;5.72;100.00
19624;BME280;9959;49.798;9.928;2024-03-06T04:48:21;99807.09;;;5.78;100.00
19624;BME280;9959;49.798;9.928;2024-03-06T04:50:48;99806.84;;;5.96;100.00
19624;BME280;9959;49.798;9.928;2024-03-06T04:53:15;99825.84;;;6.24;100.00
19624;BME280;9959;49.798;9.928;2024-03-06T04:55:43;99814.13;;;6.02;100.00
19624;BME280;9959;49.798;9.928;2024-03-06T04:58:10;99820.56;;;5.93;100.00
19624;BME280;9959;49.798;9.928;2024-03-06T05:00:37;99820.06;;;6.35;100.00
19624;BME280;9959;49.798;9.928;2024-03-06T05:03:04;99818.91;;;6.15;100.00
19624;BME280;9959;49.798;9.928;2024-03-06T05:05:45;99817.84;;;6.01;100.00
19624;BME280;9959;49.798;9.928;2024-03-06T05:08:26;99825.31;;;6.06;100.00
19624;BME280;9959;49.798;9.928;2024-03-06T05:11:06;99823.78;;;5.89;100.00
19624;BME280;9959;49.798;9.928;2024-03-06T05:13:48;99821.72;;;5.99;100.00
19624;BME280;9959;49.798;9.928;2024-03-06T05:16:29;99825.22;;;6.22;100.00
19624;BME280;9959;49.798;9.928;2024-03-06T05:19:10;99827.94;;;6.14;100.00
19624;BME280;9959;49.798;9.928;2024-03-06T05:21:51;99832.16;;;6.08;100.00
19624;BME280;9959;49.798;9.928;2024-03-06T05:24:32;99838.28;;;6.17;100.00
19624;BME280;9959;49.798;9.928;2024-03-06T05:27:12;99840.91;;;6.25;100.00
19624;BME280;9959;49.798;9.928;2024-03-06T05:29:57;99844.22;;;6.04;100.00
19624;BME280;9959;49.798;9.928;2024-03-06T05:32:37;99844.09;;;5.98;100.00
19624;BME280;9959;49.798;9.928;2024-03-06T05:35:18;99852.97;;;6.21;100.00
19624;BME280;9959;49.798;9.928;2024-03-06T05:37:59;99851.59;;;6.25;100.00
19624;BME280;9959;49.798;9.928;2024-03-06T05:40:39;99853.28;;;6.26;100.00
19624;BME280;9959;49.798;9.928;2024-03-06T05:43:21;99858.31;;;6.21;100.00
19624;BME280;9959;49.798;9.928;2024-03-06T05:46:02;99851.97;;;6.22;100.00
19624;BME280;9959;49.798;9.928;2024-03-06T05:48:43;99851.47;;;6.41;100.00
19624;BME280;9959;49.798;9.928;2024-03-06T05:51:24;99845.06;;;6.28;100.00
19624;BME280;9959;49.798;9.928;2024-03-06T05:54:04;99854.63;;;6.22;100.00
19624;BME280;9959;49.798;9.928;2024-03-06T05:56:49;99861.34;;;6.18;100.00
19624;BME280;9959;49.798;9.928;2024-03-06T05:59:30;99869.91;;;6.14;100.00
19624;BME280;9959;49.798;9.928;2024-03-06T06:01:57;99863.09;;;6.03;100.00
19624;BME280;9959;49.798;9.928;2024-03-06T06:04:24;99869.91;;;6.14;100.00
19624;BME280;9959;49.798;9.928;2024-03-06T06:06:52;99865.56;;;6.13;100.00
19624;BME280;9959;49.798;9.928;2024-03-06T06:09:19;99868.28;;;6.04;100.00
19624;BME280;9959;49.798;9.928;2024-03-06T06:11:46;99872.75;;;6.12;100.00
19624;BME280;9959;49.798;9.928;2024-03-06T06:14:14;99873.28;;;6.30;100.00
19624;BME280;9959;49.798;9.928;2024-03-06T06:16:42;99882.25;;;6.37;100.00
19624;BME280;9959;49.798;9.928;2024-03-06T06:19:09;99880.28;;;6.31;100.00
19624;BME280;9959;49.798;9.928;2024-03-06T06:21:36;99885.47;;;6.33;100.00
19624;BME280;9959;49.798;9.928;2024-03-06T06:24:04;99880.13;;;6.33;100.00
19624;BME280;9959;49.798;9.928;2024-03-06T06:26:31;99877.75;;;6.15;100.00
19624;BME280;9959;49.798;9.928;2024-03-06T06:28:59;99884.88;;;6.45;100.00
19624;BME280;9959;49.798;9.928;2024-03-06T06:31:26;99893.09;;;6.21;100.00
19624;BME280;9959;49.798;9.928;2024-03-06T06:33:53;99883.34;;;6.28;100.00
19624;BME280;9959;49.798;9.928;2024-03-06T06:36:20;99890.09;;;6.62;100.00
19624;BME280;9959;49.798;9.928;2024-03-06T06:38:47;99895.09;;;6.19;100.00
19624;BME280;9959;49.798;9.928;2024-03-06T06:41:16;99909.72;;;6.31;100.00
19624;BME280;9959;49.798;9.928;2024-03-06T06:43:43;99907.59;;;6.50;100.00
19624;BME280;9959;49.798;9.928;2024-03-06T06:46:10;99904.97;;;6.41;100.00
19624;BME280;9959;49.798;9.928;2024-03-06T06:48:37;99904.97;;;6.41;100.00
19624;BME280;9959;49.798;9.928;2024-03-06T06:51:04;99912.03;;;6.34;100.00
19624;BME280;9959;49.798;9.928;2024-03-06T06:53:31;99919.84;;;6.21;100.00
19624;BME280;9959;49.798;9.928;2024-03-06T06:55:58;99907.03;;;6.31;100.00
19624;BME280;9959;49.798;9.928;2024-03-06T06:58:26;99919.22;;;6.57;100.00
19624;BME280;9959;49.798;9.928;2024-03-06T07:00:53;99917.69;;;6.62;100.00
19624;BME280;9959;49.798;9.928;2024-03-06T07:03:26;99919.97;;;6.51;100.00
19624;BME280;9959;49.798;9.928;2024-03-06T07:06:02;99917.22;;;6.59;100.00
19624;BME280;9959;49.798;9.928;2024-03-06T07:08:34;99926.25;;;6.58;100.00
19624;BME280;9959;49.798;9.928;2024-03-06T07:11:08;99919.34;;;6.63;100.00
19624;BME280;9959;49.798;9.928;2024-03-06T07:13:43;99923.09;;;6.77;100.00
19624;BME280;9959;49.798;9.928;2024-03-06T07:16:13;99924.47;;;6.73;100.00
19624;BME280;9959;49.798;9.928;2024-03-06T07:18:49;99923.75;;;6.79;100.00
19624;BME280;9959;49.798;9.928;2024-03-06T07:21:18;99930.03;;;6.86;100.00
19624;BME280;9959;49.798;9.928;2024-03-06T07:23:47;99929.53;;;7.05;100.00
19624;BME280;9959;49.798;9.928;2024-03-06T07:26:14;99927.09;;;6.81;100.00
19624;BME280;9959;49.798;9.928;2024-03-06T07:28:44;99933.00;;;6.91;100.00
19624;BME280;9959;49.798;9.928;2024-03-06T07:31:13;99937.44;;;7.36;100.00
19624;BME280;9959;49.798;9.928;2024-03-06T07:33:40;99934.91;;;7.05;100.00
19624;BME280;9959;49.798;9.928;2024-03-06T07:36:13;99943.22;;;7.40;100.00
19624;BME280;9959;49.798;9.928;2024-03-06T07:38:47;99941.41;;;7.55;100.00
19624;BME280;9959;49.798;9.928;2024-03-06T07:41:39;99956.03;;;7.38;100.00
19624;BME280;9959;49.798;9.928;2024-03-06T07:44:54;99949.16;;;7.50;100.00
19624;BME280;9959;49.798;9.928;2024-03-06T07:47:55;99950.00;;;7.65;100.00
19624;BME280;9959;49.798;9.928;2024-03-06T07:51:21;99949.53;;;7.47;100.00
19624;BME280;9959;49.798;9.928;2024-03-06T07:54:01;99944.16;;;7.76;100.00
19624;BME280;9959;49.798;9.928;2024-03-06T07:57:06;99959.88;;;7.79;100.00
19624;BME280;9959;49.798;9.928;2024-03-06T08:00:16;99963.22;;;7.81;100.00
19624;BME280;9959;49.798;9.928;2024-03-06T08:10:40;99956.09;;;7.74;100.00
19624;BME280;9959;49.798;9.928;2024-03-06T08:13:41;99966.25;;;7.49;100.00
19624;BME280;9959;49.798;9.928;2024-03-06T08:19:53;99978.22;;;7.61;100.00
19624;BME280;9959;49.798;9.928;2024-03-06T08:22:22;99984.31;;;7.85;100.00
19624;BME280;9959;49.798;9.928;2024-03-06T08:24:49;99977.28;;;7.84;100.00
19624;BME280;9959;49.798;9.928;2024-03-06T08:27:16;99980.03;;;8.05;100.00
19624;BME280;9959;49.798;9.928;2024-03-06T08:29:43;99982.44;;;8.00;100.00
19624;BME280;9959;49.798;9.928;2024-03-06T08:32:11;99983.06;;;8.17;100.00
19624;BME280;9959;49.798;9.928;2024-03-06T08:34:38;99973.44;;;8.58;100.00
19624;BME280;9959;49.798;9.928;2024-03-06T08:37:05;99984.03;;;8.30;100.00
19624;BME280;9959;49.798;9.928;2024-03-06T08:39:32;99975.22;;;8.51;100.00
19624;BME280;9959;49.798;9.928;2024-03-06T08:41:59;99988.69;;;8.72;100.00
19624;BME280;9959;49.798;9.928;2024-03-06T08:44:27;99985.28;;;7.98;100.00
19624;BME280;9959;49.798;9.928;2024-03-06T08:46:54;99991.72;;;7.82;100.00
19624;BME280;9959;49.798;9.928;2024-03-06T08:49:21;99992.63;;;7.90;100.00
19624;BME280;9959;49.798;9.928;2024-03-06T08:51:48;100000.66;;;7.75;100.00
19624;BME280;9959;49.798;9.928;2024-03-06T08:54:15;99998.44;;;8.08;100.00
19624;BME280;9959;49.798;9.928;2024-03-06T08:56:45;100001.78;;;7.80;100.00
19624;BME280;9959;49.798;9.928;2024-03-06T08:59:12;100007.41;;;7.56;100.00
19624;BME280;9959;49.798;9.928;2024-03-06T09:01:39;100005.28;;;7.66;100.00
19624;BME280;9959;49.798;9.928;2024-03-06T09:04:06;100012.78;;;7.71;100.00
19624;BME280;9959;49.798;9.928;2024-03-06T09:06:34;100010.41;;;7.91;100.00
19624;BME280;9959;49.798;9.928;2024-03-06T09:09:01;100010.38;;;7.61;100.00
19624;BME280;9959;49.798;9.928;2024-03-06T09:11:29;100015.53;;;7.48;100.00
19624;BME280;9959;49.798;9.928;2024-03-06T09:13:55;100016.47;;;7.55;100.00
19624;BME280;9959;49.798;9.928;2024-03-06T09:16:23;100010.47;;;7.53;100.00
19624;BME280;9959;49.798;9.928;2024-03-06T09:18:51;100017.06;;;7.65;100.00
19624;BME280;9959;49.798;9.928;2024-03-06T09:21:18;100025.91;;;7.80;100.00
19624;BME280;9959;49.798;9.928;2024-03-06T09:23:46;100022.22;;;8.11;100.00
19624;BME280;9959;49.798;9.928;2024-03-06T09:26:18;100030.63;;;7.93;100.00
19624;BME280;9959;49.798;9.928;2024-03-06T09:28:45;100029.34;;;7.60;100.00
19624;BME280;9959;49.798;9.928;2024-03-06T09:31:12;100029.69;;;7.71;100.00
19624;BME280;9959;49.798;9.928;2024-03-06T09:33:40;100035.06;;;7.71;100.00
19624;BME280;9959;49.798;9.928;2024-03-06T09:36:10;100035.34;;;7.76;100.00
19624;BME280;9959;49.798;9.928;2024-03-06T09:38:37;100034.53;;;7.76;100.00
19624;BME280;9959;49.798;9.928;2024-03-06T09:41:07;100037.66;;;7.79;100.00
19624;BME280;9959;49.798;9.928;2024-03-06T09:43:35;100047.00;;;7.84;100.00
19624;BME280;9959;49.798;9.928;2024-03-06T09:46:02;100046.72;;;7.93;100.00
19624;BME280;9959;49.798;9.928;2024-03-06T09:48:31;100044.22;;;7.77;100.00
19624;BME280;9959;49.798;9.928;2024-03-06T09:51:01;100046.72;;;7.93;100.00
19624;BME280;9959;49.798;9.928;2024-03-06T09:53:31;100055.34;;;7.89;100.00
19624;BME280;9959;49.798;9.928;2024-03-06T09:55:59;100045.44;;;8.04;100.00
19624;BME280;9959;49.798;9.928;2024-03-06T09:58:27;100062.56;;;8.03;100.00
19624;BME280;9959;49.798;9.928;2024-03-06T10:00:55;100059.78;;;8.11;100.00
19624;BME280;9959;49.798;9.928;2024-03-06T10:03:25;100062.09;;;8.14;100.00
19624;BME280;9959;49.798;9.928;2024-03-06T10:05:52;100058.28;;;7.94;100.00
19624;BME280;9959;49.798;9.928;2024-03-06T10:08:22;100061.09;;;8.15;100.00
19624;BME280;9959;49.798;9.928;2024-03-06T10:10:52;100060.06;;;8.01;100.00
19624;BME280;9959;49.798;9.928;2024-03-06T10:13:25;100064.78;;;8.14;100.00
19624;BME280;9959;49.798;9.928;2024-03-06T10:16:00;100059.94;;;8.54;100.00
19624;BME280;9959;49.798;9.928;2024-03-06T10:18:29;100064.47;;;8.24;100.00
19624;BME280;9959;49.798;9.928;2024-03-06T10:20:58;100067.94;;;8.32;100.00
19624;BME280;9959;49.798;9.928;2024-03-06T10:23:25;100065.31;;;8.54;100.00
19624;BME280;9959;49.798;9.928;2024-03-06T10:25:55;100060.88;;;8.31;100.00
19624;BME280;9959;49.798;9.928;2024-03-06T10:28:23;100065.56;;;8.59;100.00
19624;BME280;9959;49.798;9.928;2024-03-06T10:30:51;100066.69;;;8.49;100.00
19624;BME280;9959;49.798;9.928;2024-03-06T10:33:18;100069.66;;;8.55;100.00
19624;BME280;9959;49.798;9.928;2024-03-06T10:35:47;100064.91;;;8.71;100.00
19624;BME280;9959;49.798;9.928;2024-03-06T10:38:20;100064.25;;;8.69;100.00
19624;BME280;9959;49.798;9.928;2024-03-06T10:40:49;100055.84;;;9.15;100.00
19624;BME280;9959;49.798;9.928;2024-03-06T10:43:18;100056.59;;;9.30;99.43
19624;BME280;9959;49.798;9.928;2024-03-06T10:45:50;100064.91;;;9.84;93.73
19624;BME280;9959;49.798;9.928;2024-03-06T10:48:18;100063.25;;;9.90;93.14
19624;BME280;9959;49.798;9.928;2024-03-06T10:50:48;100062.34;;;10.39;90.85
19624;BME280;9959;49.798;9.928;2024-03-06T10:53:17;100056.09;;;10.04;92.01
19624;BME280;9959;49.798;9.928;2024-03-06T10:55:49;100057.03;;;9.90;91.92
19624;BME280;9959;49.798;9.928;2024-03-06T10:58:18;100056.03;;;10.25;90.01
19624;BME280;9959;49.798;9.928;2024-03-06T11:00:47;100061.16;;;10.55;86.89
19624;BME280;9959;49.798;9.928;2024-03-06T11:03:15;100062.97;;;11.22;84.18
19624;BME280;9959;49.798;9.928;2024-03-06T11:05:43;100057.38;;;11.16;82.73
19624;BME280;9959;49.798;9.928;2024-03-06T11:08:16;100059.38;;;10.88;83.40
19624;BME280;9959;49.798;9.928;2024-03-06T11:10:47;100056.41;;;10.63;85.98
19624;BME280;9959;49.798;9.928;2024-03-06T11:16:01;100070.28;;;10.60;88.20
19624;BME280;9959;49.798;9.928;2024-03-06T11:23:32;100072.38;;;10.65;88.63
19624;BME280;9959;49.798;9.928;2024-03-06T11:26:05;100072.50;;;10.15;89.02
19624;BME280;9959;49.798;9.928;2024-03-06T11:28:35;100068.34;;;10.13;88.52
19624;BME280;9959;49.798;9.928;2024-03-06T11:31:10;100074.25;;;10.23;87.71
19624;BME280;9959;49.798;9.928;2024-03-06T11:33:46;100055.88;;;10.33;87.04
19624;BME280;9959;49.798;9.928;2024-03-06T11:36:15;100069.78;;;10.37;86.95
19624;BME280;9959;49.798;9.928;2024-03-06T11:39:11;100066.53;;;10.55;85.39
19624;BME280;9959;49.798;9.928;2024-03-06T11:44:19;100067.84;;;10.65;83.98
19624;BME280;9959;49.798;9.928;2024-03-06T11:46:58;100060.78;;;10.23;85.42
19624;BME280;9959;49.798;9.928;2024-03-06T11:49:28;100068.34;;;10.13;86.00
19624;BME280;9959;49.798;9.928;2024-03-06T11:51:57;100065.16;;;10.24;85.17
19624;BME280;9959;49.798;9.928;2024-03-06T11:54:24;100067.72;;;10.39;85.42
19624;BME280;9959;49.798;9.928;2024-03-06T11:56:55;100062.53;;;10.37;84.54
19624;BME280;9959;49.798;9.928;2024-03-06T11:59:27;100057.31;;;10.29;85.66
19624;BME280;9959;49.798;9.928;2024-03-06T12:01:56;100059.81;;;10.31;84.88
19624;BME280;9959;49.798;9.928;2024-03-06T12:04:24;100068.06;;;9.95;85.65
19624;BME280;9959;49.798;9.928;2024-03-06T12:06:51;100062.75;;;10.42;84.68
19624;BME280;9959;49.798;9.928;2024-03-06T12:09:18;100060.88;;;10.36;84.42
19624;BME280;9959;49.798;9.928;2024-03-06T12:11:46;100059.63;;;10.93;82.85
19624;BME280;9959;49.798;9.928;2024-03-06T12:14:18;100063.22;;;10.52;83.42
19624;BME280;9959;49.798;9.928;2024-03-06T12:16:55;100055.75;;;10.55;82.28
19624;BME280;9959;49.798;9.928;2024-03-06T12:19:24;100064.13;;;10.79;82.79
19624;BME280;9959;49.798;9.928;2024-03-06T12:21:52;100065.09;;;10.59;81.90
19624;BME280;9959;49.798;9.928;2024-03-06T12:24:20;100058.72;;;10.66;80.94
19624;BME280;9959;49.798;9.928;2024-03-06T12:26:59;100068.22;;;10.69;80.63
19624;BME280;9959;49.798;9.928;2024-03-06T12:29:28;100066.16;;;10.71;80.15
19624;BME280;9959;49.798;9.928;2024-03-06T12:32:00;100068.28;;;10.82;79.60
19624;BME280;9959;49.798;9.928;2024-03-06T12:34:28;100060.78;;;10.71;79.01
19624;BME280;9959;49.798;9.928;2024-03-06T12:37:08;100056.94;;;10.45;79.46
19624;BME280;9959;49.798;9.928;2024-03-06T12:39:35;100063.22;;;10.52;78.08
19624;BME280;9959;49.798;9.928;2024-03-06T12:42:07;100063.59;;;10.49;76.99
19624;BME280;9959;49.798;9.928;2024-03-06T12:44:34;100068.31;;;10.89;75.92
19624;BME280;9959;49.798;9.928;2024-03-06T12:47:01;100060.50;;;10.52;75.92
19624;BME280;9959;49.798;9.928;2024-03-06T12:49:28;100058.50;;;10.74;76.02
19624;BME280;9959;49.798;9.928;2024-03-06T12:51:55;100064.56;;;10.83;75.41
19624;BME280;9959;49.798;9.928;2024-03-06T12:54:22;100066.09;;;11.18;74.43
19624;BME280;9959;49.798;9.928;2024-03-06T12:56:50;100059.59;;;11.00;75.51
19624;BME280;9959;49.798;9.928;2024-03-06T12:59:18;100062.31;;;10.93;75.33
19624;BME280;9959;49.798;9.928;2024-03-06T13:01:46;100056.69;;;10.95;74.90
19624;BME280;9959;49.798;9.928;2024-03-06T13:04:14;100060.00;;;10.83;74.63
19624;BME280;9959;49.798;9.928;2024-03-06T13:06:41;100059.94;;;10.64;75.20
19624;BME280;9959;49.798;9.928;2024-03-06T13:09:08;100056.06;;;10.86;74.70
19624;BME280;9959;49.798;9.928;2024-03-06T13:11:35;100057.13;;;10.92;73.83
19624;BME280;9959;49.798;9.928;2024-03-06T13:14:02;100051.94;;;11.03;72.95
19624;BME280;9959;49.798;9.928;2024-03-06T13:16:29;100055.28;;;11.05;73.38
19624;BME280;9959;49.798;9.928;2024-03-06T13:18:56;100057.56;;;11.22;72.50
19624;BME280;9959;49.798;9.928;2024-03-06T13:21:24;100051.34;;;11.28;71.97
19624;BME280;9959;49.798;9.928;2024-03-06T13:23:51;100053.38;;;10.99;72.67
19624;BME280;9959;49.798;9.928;2024-03-06T13:26:18;100058.16;;;11.04;71.45
19624;BME280;9959;49.798;9.928;2024-03-06T13:28:45;100050.91;;;10.98;72.08
19624;BME280;9959;49.798;9.928;2024-03-06T13:31:13;100054.66;;;11.03;71.90
19624;BME280;9959;49.798;9.928;2024-03-06T13:33:40;100054.69;;;11.69;69.77
19624;BME280;9959;49.798;9.928;2024-03-06T13:36:08;100055.94;;;11.67;70.36
19624;BME280;9959;49.798;9.928;2024-03-06T13:38:35;100061.53;;;11.65;70.41
19624;BME280;9959;49.798;9.928;2024-03-06T13:41:02;100063.59;;;11.37;70.66
19624;BME280;9959;49.798;9.928;2024-03-06T13:43:29;100064.84;;;11.28;71.28